Time;durP1;ratioP1;P1;durP2;ratioP2;P2;SDS_P1;SDS_P2;PMS_P1;PMS_P2;Temp;Humidity;BMP_temperature;BMP_pressure;BME280_temperature;BME280_humidity;BME280_pressure;Samples;Min_cycle;Max_cycle;Signal;HPM_P1;HPM_P2
2022/05/16 00:00:27;;;;;;;0.05;0.05;;;;;;;;;;5037074;28;92861;-74
2022/05/16 00:02:54;;;;;;;0.00;0.00;;;;;;;;;;5036909;28;92278;-73
2022/05/16 00:05:22;;;;;;;0.00;0.00;;;;;;;;;;5036900;28;93503;-74
2022/05/16 00:07:48;;;;;;;0.30;0.30;;;;;;;;;;5034972;28;95966;-74
2022/05/16 00:10:15;;;;;;;0.00;0.00;;;;;;;;;;5036317;28;92349;-74
2022/05/16 00:12:41;;;;;;;0.10;0.10;;;;;;;;;;5018629;28;95130;-74
2022/05/16 00:15:09;;;;;;;0.00;0.00;;;;;;;;;;5018788;28;93759;-74
2022/05/16 00:17:35;;;;;;;0.00;0.00;;;;;;;;;;5036369;28;92347;-75
2022/05/16 00:20:02;;;;;;;0.00;0.00;;;;;;;;;;5039661;28;93363;-74
2022/05/16 00:22:29;;;;;;;0.05;0.05;;;;;;;;;;5036581;28;92426;-75
2022/05/16 00:24:56;;;;;;;0.00;0.00;;;;;;;;;;5036634;28;93321;-74
2022/05/16 00:27:23;;;;;;;0.20;0.20;;;;;;;;;;5036479;28;93399;-75
2022/05/16 00:29:49;;;;;;;0.00;0.00;;;;;;;;;;5036500;28;92295;-75
2022/05/16 00:32:17;;;;;;;0.00;0.00;;;;;;;;;;5034969;28;94824;-75
2022/05/16 00:34:43;;;;;;;0.00;0.00;;;;;;;;;;5036135;28;93703;-76
2022/05/16 00:37:10;;;;;;;0.00;0.00;;;;;;;;;;5036257;28;92280;-75
2022/05/16 00:39:36;;;;;;;0.00;0.00;;;;;;;;;;5018099;28;95418;-75
2022/05/16 00:42:03;;;;;;;0.00;0.00;;;;;;;;;;5039136;28;93609;-75
2022/05/16 00:44:30;;;;;;;0.55;0.40;;;;;;;;;;5038428;27;93138;-75
2022/05/16 00:46:56;;;;;;;0.10;0.10;;;;;;;;;;5039644;28;93531;-75
2022/05/16 00:49:27;;;;;;;0.00;0.00;;;;;;;;;;5040147;28;91559;-75
2022/05/16 00:52:02;;;;;;;0.00;0.00;;;;;;;;;;5039616;28;92592;-75
2022/05/16 00:54:30;;;;;;;0.00;0.00;;;;;;;;;;5039415;28;93223;-75
2022/05/16 00:57:01;;;;;;;0.00;0.00;;;;;;;;;;5023562;28;95219;-75
2022/05/16 00:59:31;;;;;;;0.00;0.00;;;;;;;;;;5039825;28;95207;-74
2022/05/16 01:04:49;;;;;;;0.00;0.00;;;;;;;;;;5042361;28;92201;-74
2022/05/16 01:07:20;;;;;;;0.00;0.00;;;;;;;;;;5039149;28;92736;-74
2022/05/16 01:09:46;;;;;;;0.10;0.10;;;;;;;;;;5039338;28;92262;-73
2022/05/16 01:12:13;;;;;;;0.00;0.00;;;;;;;;;;5039158;28;93750;-74
2022/05/16 01:14:51;;;;;;;0.00;0.00;;;;;;;;;;5022000;28;92506;-74
2022/05/16 01:17:18;;;;;;;0.00;0.00;;;;;;;;;;5039059;28;92354;-74
2022/05/16 01:19:45;;;;;;;0.00;0.00;;;;;;;;;;5039015;28;93773;-73
2022/05/16 01:22:18;;;;;;;0.00;0.00;;;;;;;;;;5018953;28;96488;-73
2022/05/16 01:24:44;;;;;;;0.00;0.00;;;;;;;;;;5036920;28;92441;-75
2022/05/16 01:27:10;;;;;;;0.17;0.17;;;;;;;;;;5039202;28;93265;-73
2022/05/16 01:29:37;;;;;;;0.00;0.00;;;;;;;;;;5038243;27;92337;-74
2022/05/16 01:32:04;;;;;;;0.00;0.00;;;;;;;;;;5039028;28;93114;-74
2022/05/16 01:34:30;;;;;;;0.10;0.10;;;;;;;;;;5038869;28;93712;-74
2022/05/16 01:36:57;;;;;;;0.00;0.00;;;;;;;;;;5038567;28;92230;-74
2022/05/16 01:39:23;;;;;;;0.00;0.00;;;;;;;;;;5021543;28;93945;-74
2022/05/16 01:41:49;;;;;;;0.00;0.00;;;;;;;;;;5038650;28;93206;-74
2022/05/16 01:44:16;;;;;;;0.30;0.30;;;;;;;;;;5020822;28;92342;-74
2022/05/16 01:46:42;;;;;;;0.20;0.20;;;;;;;;;;5040246;28;94674;-75
2022/05/16 01:49:09;;;;;;;0.00;0.00;;;;;;;;;;5038381;28;92316;-75
2022/05/16 01:51:37;;;;;;;0.00;0.00;;;;;;;;;;5038941;28;92880;-75
2022/05/16 01:54:03;;;;;;;0.00;0.00;;;;;;;;;;5038666;28;93075;-75
2022/05/16 01:56:31;;;;;;;0.00;0.00;;;;;;;;;;5020063;28;92487;-76
2022/05/16 01:58:58;;;;;;;0.15;0.15;;;;;;;;;;5038612;28;93234;-75
2022/05/16 02:01:25;;;;;;;0.00;0.00;;;;;;;;;;5038145;28;93035;-75
2022/05/16 02:03:51;;;;;;;0.05;0.05;;;;;;;;;;5039111;28;91661;-75
2022/05/16 02:06:18;;;;;;;0.00;0.00;;;;;;;;;;5038538;28;92871;-76
2022/05/16 02:08:44;;;;;;;0.00;0.00;;;;;;;;;;5041507;28;92611;-75
2022/05/16 02:11:11;;;;;;;0.00;0.00;;;;;;;;;;5036504;28;94751;-76
2022/05/16 02:13:39;;;;;;;0.25;0.25;;;;;;;;;;5038407;28;92731;-76
2022/05/16 02:16:06;;;;;;;0.00;0.00;;;;;;;;;;5038323;28;92206;-76
2022/05/16 02:18:33;;;;;;;0.00;0.00;;;;;;;;;;5020383;28;94710;-75
2022/05/16 02:26:30;;;;;;;0.00;0.00;;;;;;;;;;5037988;28;93384;-76
2022/05/16 02:28:56;;;;;;;0.00;0.00;;;;;;;;;;5038515;28;93418;-76
2022/05/16 02:31:23;;;;;;;0.00;0.00;;;;;;;;;;5041339;28;92444;-76
2022/05/16 02:33:49;;;;;;;0.00;0.00;;;;;;;;;;5037850;28;93441;-76
2022/05/16 02:36:16;;;;;;;0.00;0.00;;;;;;;;;;5035753;28;94724;-76
2022/05/16 02:38:42;;;;;;;0.00;0.00;;;;;;;;;;5038023;28;95825;-76
2022/05/16 02:41:09;;;;;;;0.00;0.00;;;;;;;;;;5020267;28;93698;-75
2022/05/16 02:43:35;;;;;;;0.00;0.00;;;;;;;;;;5020628;28;92389;-76
2022/05/16 02:46:02;;;;;;;0.00;0.00;;;;;;;;;;5037993;28;93342;-75
2022/05/16 02:48:28;;;;;;;0.13;0.13;;;;;;;;;;5037818;28;92196;-75
2022/05/16 02:50:54;;;;;;;0.00;0.00;;;;;;;;;;5037524;28;92338;-75
2022/05/16 02:53:21;;;;;;;0.10;0.10;;;;;;;;;;5040965;28;94682;-76
2022/05/16 02:55:47;;;;;;;0.00;0.00;;;;;;;;;;5037814;28;92348;-75
2022/05/16 02:58:13;;;;;;;0.00;0.00;;;;;;;;;;5037452;28;93619;-76
2022/05/16 03:00:40;;;;;;;0.00;0.00;;;;;;;;;;5035950;28;96224;-76
2022/05/16 03:03:06;;;;;;;0.00;0.00;;;;;;;;;;5037574;28;92267;-75
2022/05/16 03:05:32;;;;;;;0.00;0.00;;;;;;;;;;5037255;28;93301;-76
2022/05/16 03:07:59;;;;;;;0.00;0.00;;;;;;;;;;5037485;27;92696;-76
2022/05/16 03:10:26;;;;;;;0.00;0.00;;;;;;;;;;5038717;28;92433;-76
2022/05/16 03:12:53;;;;;;;0.00;0.00;;;;;;;;;;5042326;28;93568;-76
2022/05/16 03:15:19;;;;;;;0.00;0.00;;;;;;;;;;5037533;28;92391;-75
2022/05/16 03:17:47;;;;;;;0.00;0.00;;;;;;;;;;5037716;28;93718;-75
2022/05/16 03:20:15;;;;;;;0.00;0.00;;;;;;;;;;5036658;28;93313;-75
2022/05/16 03:22:41;;;;;;;0.00;0.00;;;;;;;;;;5037014;28;92272;-75
2022/05/16 03:25:08;;;;;;;0.00;0.00;;;;;;;;;;5036085;28;94736;-75
2022/05/16 03:27:35;;;;;;;0.00;0.00;;;;;;;;;;5037096;28;93049;-75
2022/05/16 03:30:01;;;;;;;0.00;0.00;;;;;;;;;;5037330;28;92328;-75
2022/05/16 03:32:28;;;;;;;0.22;0.22;;;;;;;;;;5037277;28;93458;-75
2022/05/16 03:34:54;;;;;;;0.00;0.00;;;;;;;;;;5039798;28;93683;-75
2022/05/16 03:37:21;;;;;;;0.00;0.00;;;;;;;;;;5037160;28;93452;-75
2022/05/16 03:42:33;;;;;;;0.13;0.13;;;;;;;;;;5037493;28;91485;-75
2022/05/16 03:44:59;;;;;;;0.00;0.00;;;;;;;;;;5036922;28;92570;-75
2022/05/16 03:47:26;;;;;;;0.00;0.00;;;;;;;;;;5036417;28;93377;-75
2022/05/16 03:49:53;;;;;;;0.00;0.00;;;;;;;;;;5035066;28;94733;-75
2022/05/16 03:52:19;;;;;;;0.10;0.10;;;;;;;;;;5036527;28;95841;-75
2022/05/16 03:54:45;;;;;;;0.00;0.00;;;;;;;;;;5036552;28;93237;-75
2022/05/16 03:57:12;;;;;;;0.00;0.00;;;;;;;;;;5039537;28;92368;-74
2022/05/16 03:59:38;;;;;;;0.00;0.00;;;;;;;;;;5036362;28;93678;-75
2022/05/16 04:02:05;;;;;;;0.00;0.00;;;;;;;;;;5036753;28;92265;-74
2022/05/16 04:04:32;;;;;;;0.00;0.00;;;;;;;;;;5019469;28;93142;-74
2022/05/16 04:06:58;;;;;;;0.00;0.00;;;;;;;;;;5037392;28;91459;-75
2022/05/16 04:09:24;;;;;;;0.00;0.00;;;;;;;;;;5036725;28;93179;-74
2022/05/16 04:11:51;;;;;;;0.00;0.00;;;;;;;;;;5036741;28;93668;-75
2022/05/16 04:14:17;;;;;;;0.00;0.00;;;;;;;;;;5034473;28;96213;-75
2022/05/16 04:16:43;;;;;;;0.00;0.00;;;;;;;;;;5036828;28;92406;-75
2022/05/16 04:19:10;;;;;;;0.00;0.00;;;;;;;;;;5041284;28;93344;-74
2022/05/16 04:21:37;;;;;;;0.00;0.00;;;;;;;;;;5040384;28;92295;-74
2022/05/16 04:24:05;;;;;;;0.00;0.00;;;;;;;;;;5039965;28;92756;-74
2022/05/16 04:26:32;;;;;;;0.00;0.00;;;;;;;;;;5039953;28;93095;-75
2022/05/16 04:28:58;;;;;;;0.00;0.00;;;;;;;;;;5039799;28;92290;-74
2022/05/16 04:31:25;;;;;;;0.00;0.00;;;;;;;;;;5040470;28;93394;-74
2022/05/16 04:33:51;;;;;;;0.20;0.20;;;;;;;;;;5039883;28;93546;-74
2022/05/16 04:36:18;;;;;;;0.00;0.00;;;;;;;;;;5039841;28;92386;-74
2022/05/16 04:38:44;;;;;;;0.00;0.00;;;;;;;;;;5038167;28;94829;-73
2022/05/16 04:43:55;;;;;;;0.00;0.00;;;;;;;;;;5040194;28;93848;-73
2022/05/16 04:46:22;;;;;;;0.00;0.00;;;;;;;;;;5039257;28;94568;-74
2022/05/16 04:48:48;;;;;;;0.10;0.10;;;;;;;;;;5039710;28;92203;-74
2022/05/16 04:51:15;;;;;;;0.00;0.00;;;;;;;;;;5039667;28;93393;-74
2022/05/16 04:53:41;;;;;;;0.00;0.00;;;;;;;;;;5039437;28;94162;-75
2022/05/16 04:56:08;;;;;;;0.00;0.00;;;;;;;;;;5022269;28;92277;-74
2022/05/16 04:58:34;;;;;;;0.00;0.00;;;;;;;;;;5039572;28;92571;-73
2022/05/16 05:01:01;;;;;;;0.00;0.00;;;;;;;;;;5039226;28;94221;-74
2022/05/16 05:03:29;;;;;;;0.10;0.10;;;;;;;;;;5041190;28;94768;-74
2022/05/16 05:05:55;;;;;;;0.00;0.00;;;;;;;;;;5039296;28;93407;-73
2022/05/16 05:08:21;;;;;;;0.35;0.35;;;;;;;;;;5039507;28;92944;-74
2022/05/16 05:16:20;;;;;;;0.10;0.10;;;;;;;;;;5039302;28;93513;-73
2022/05/16 05:18:46;;;;;;;0.10;0.10;;;;;;;;;;5039174;28;93280;-73
2022/05/16 05:21:13;;;;;;;0.10;0.10;;;;;;;;;;5039396;28;92907;-74
2022/05/16 05:23:40;;;;;;;0.38;0.15;;;;;;;;;;5042404;28;92343;-75
2022/05/16 05:26:07;;;;;;;0.10;0.10;;;;;;;;;;5039140;28;93741;-74
2022/05/16 05:28:34;;;;;;;0.00;0.00;;;;;;;;;;5037610;28;94795;-75
2022/05/16 05:31:01;;;;;;;0.00;0.00;;;;;;;;;;5037830;27;96102;-75
2022/05/16 05:33:27;;;;;;;0.10;0.10;;;;;;;;;;5038594;28;93083;-76
2022/05/16 05:35:54;;;;;;;0.20;0.20;;;;;;;;;;5038100;28;92341;-74
2022/05/16 05:38:20;;;;;;;0.10;0.10;;;;;;;;;;5020836;28;94128;-74
2022/05/16 05:40:49;;;;;;;0.10;0.10;;;;;;;;;;5038569;28;93406;-74
2022/05/16 05:43:15;;;;;;;0.30;0.30;;;;;;;;;;5038697;28;92365;-73
2022/05/16 05:45:43;;;;;;;1.50;0.40;;;;;;;;;;5042305;28;93576;-75
2022/05/16 05:48:09;;;;;;;0.17;0.17;;;;;;;;;;5038628;28;92338;-77
2022/05/16 05:50:36;;;;;;;0.40;0.40;;;;;;;;;;5038679;28;93351;-76
2022/05/16 05:53:02;;;;;;;0.60;0.30;;;;;;;;;;5037131;28;96208;-76
2022/05/16 05:55:28;;;;;;;0.10;0.10;;;;;;;;;;5038797;28;92195;-74
2022/05/16 05:57:55;;;;;;;0.28;0.28;;;;;;;;;;5038362;28;92353;-75
2022/05/16 06:00:21;;;;;;;0.10;0.10;;;;;;;;;;5038061;28;95568;-75
2022/05/16 06:02:48;;;;;;;0.10;0.10;;;;;;;;;;5037981;28;92373;-75
2022/05/16 06:05:15;;;;;;;0.20;0.20;;;;;;;;;;5038557;28;93380;-76
2022/05/16 06:07:42;;;;;;;0.45;0.20;;;;;;;;;;5023267;28;93660;-76
2022/05/16 06:10:09;;;;;;;0.10;0.10;;;;;;;;;;5038970;28;93377;-76
2022/05/16 06:12:35;;;;;;;0.10;0.10;;;;;;;;;;5020199;28;95287;-74
2022/05/16 06:15:03;;;;;;;0.25;0.25;;;;;;;;;;5038349;28;92482;-72
2022/05/16 06:17:29;;;;;;;3.00;0.50;;;;;;;;;;5036326;28;94751;-73
2022/05/16 06:19:57;;;;;;;0.10;0.10;;;;;;;;;;5020339;28;93620;-72
2022/05/16 06:22:23;;;;;;;0.52;0.52;;;;;;;;;;5038424;28;92414;-72
2022/05/16 06:27:35;;;;;;;0.05;0.05;;;;;;;;;;5038019;28;93513;-73
2022/05/16 06:30:01;;;;;;;0.10;0.10;;;;;;;;;;5040510;28;92386;-72
2022/05/16 06:32:34;;;;;;;0.10;0.10;;;;;;;;;;5037777;28;93659;-74
2022/05/16 06:35:01;;;;;;;0.10;0.10;;;;;;;;;;5038272;28;91657;-73
2022/05/16 06:37:27;;;;;;;0.10;0.10;;;;;;;;;;5037702;28;92576;-74
2022/05/16 06:39:53;;;;;;;0.30;0.30;;;;;;;;;;5037827;28;93688;-73
2022/05/16 06:42:20;;;;;;;0.70;0.63;;;;;;;;;;5035588;28;94719;-74
2022/05/16 06:44:47;;;;;;;0.10;0.10;;;;;;;;;;5037744;28;94967;-73
2022/05/16 06:47:14;;;;;;;0.10;0.10;;;;;;;;;;5037646;28;93573;-74
2022/05/16 06:49:40;;;;;;;0.10;0.10;;;;;;;;;;5037895;28;92320;-73
2022/05/16 06:52:06;;;;;;;0.10;0.10;;;;;;;;;;5037637;28;93724;-72
2022/05/16 06:54:36;;;;;;;0.10;0.10;;;;;;;;;;5020589;28;92353;-72
2022/05/16 06:57:03;;;;;;;0.10;0.10;;;;;;;;;;5037210;27;93378;-73
2022/05/16 06:59:30;;;;;;;0.35;0.30;;;;;;;;;;5037728;28;93897;-72
2022/05/16 07:01:57;;;;;;;0.20;0.20;;;;;;;;;;5037476;28;92885;-73
2022/05/16 07:04:23;;;;;;;0.35;0.35;;;;;;;;;;5037694;28;93404;-74
2022/05/16 07:06:50;;;;;;;0.00;0.00;;;;;;;;;;5035618;28;95941;-74
2022/05/16 07:09:17;;;;;;;0.10;0.10;;;;;;;;;;5019964;28;92450;-74
2022/05/16 07:11:44;;;;;;;0.10;0.10;;;;;;;;;;5036679;28;94425;-73
2022/05/16 07:14:10;;;;;;;0.10;0.10;;;;;;;;;;5040340;28;93740;-73
2022/05/16 07:16:38;;;;;;;0.20;0.20;;;;;;;;;;5037152;28;93332;-74
2022/05/16 07:19:06;;;;;;;0.50;0.50;;;;;;;;;;5037167;28;93441;-73
2022/05/16 07:21:33;;;;;;;0.10;0.10;;;;;;;;;;5037236;28;92167;-74
2022/05/16 07:24:00;;;;;;;0.08;0.08;;;;;;;;;;5037926;28;93410;-74
2022/05/16 07:29:12;;;;;;;0.00;0.00;;;;;;;;;;5037538;28;92186;-75
2022/05/16 07:31:38;;;;;;;0.20;0.20;;;;;;;;;;5035787;28;94666;-75
2022/05/16 07:34:12;;;;;;;0.00;0.00;;;;;;;;;;5040238;28;92925;-75
2022/05/16 07:36:40;;;;;;;0.20;0.20;;;;;;;;;;5018967;28;95464;-78
2022/05/16 07:39:07;;;;;;;0.10;0.10;;;;;;;;;;5037066;28;93212;-73
2022/05/16 07:41:33;;;;;;;0.00;0.00;;;;;;;;;;5019481;28;92329;-74
2022/05/16 07:43:59;;;;;;;0.43;0.43;;;;;;;;;;5036449;28;94409;-74
2022/05/16 07:46:26;;;;;;;0.03;0.03;;;;;;;;;;5036735;28;93971;-71
2022/05/16 07:48:53;;;;;;;0.20;0.20;;;;;;;;;;5037459;28;91768;-71
2022/05/16 07:51:19;;;;;;;0.00;0.00;;;;;;;;;;5036577;28;93001;-70
2022/05/16 07:53:45;;;;;;;0.10;0.10;;;;;;;;;;5037685;27;93158;-72
2022/05/16 07:56:12;;;;;;;0.10;0.10;;;;;;;;;;5041679;28;94717;-73
2022/05/16 07:58:38;;;;;;;0.45;0.28;;;;;;;;;;5038722;27;93919;-73
2022/05/16 08:01:05;;;;;;;0.50;0.50;;;;;;;;;;5042350;27;92378;-73
2022/05/16 08:03:32;;;;;;;0.20;0.20;;;;;;;;;;5039423;27;92831;-73
2022/05/16 08:05:58;;;;;;;0.10;0.10;;;;;;;;;;5039206;27;93355;-72
2022/05/16 08:11:11;;;;;;;0.20;0.20;;;;;;;;;;5039633;27;93876;-72
2022/05/16 08:13:39;;;;;;;0.20;0.20;;;;;;;;;;5044009;27;92992;-72
2022/05/16 08:16:05;;;;;;;0.10;0.10;;;;;;;;;;5039609;27;92202;-74
2022/05/16 08:18:32;;;;;;;0.10;0.10;;;;;;;;;;5042127;27;92950;-73
2022/05/16 08:20:59;;;;;;;0.35;0.35;;;;;;;;;;5038174;27;95243;-72
2022/05/16 08:23:27;;;;;;;0.10;0.10;;;;;;;;;;5039538;27;96052;-74
2022/05/16 08:25:55;;;;;;;0.05;0.05;;;;;;;;;;5039046;27;95075;-72
2022/05/16 08:28:22;;;;;;;0.10;0.10;;;;;;;;;;5039537;27;92116;-73
2022/05/16 08:30:50;;;;;;;0.20;0.20;;;;;;;;;;5039077;27;92740;-75
2022/05/16 08:33:16;;;;;;;0.10;0.10;;;;;;;;;;5021701;27;94552;-74
2022/05/16 08:35:42;;;;;;;0.10;0.10;;;;;;;;;;5021238;28;93928;-72
2022/05/16 08:40:56;;;;;;;0.10;0.10;;;;;;;;;;5042164;27;93540;-76
2022/05/16 08:43:28;;;;;;;0.10;0.10;;;;;;;;;;5039831;27;92886;-73
2022/05/16 08:46:26;;;;;;;0.10;0.10;;;;;;;;;;5037413;27;95899;-72
2022/05/16 08:48:55;;;;;;;0.00;0.00;;;;;;;;;;5014570;27;92487;-72
2022/05/16 08:51:29;;;;;;;0.13;0.13;;;;;;;;;;5039233;27;94850;-72
2022/05/16 08:54:02;;;;;;;0.05;0.05;;;;;;;;;;5045530;27;93452;-72
2022/05/16 08:56:30;;;;;;;0.10;0.10;;;;;;;;;;5029784;28;92412;-72
2022/05/16 08:59:13;;;;;;;0.10;0.10;;;;;;;;;;5043504;27;94648;-75
2022/05/16 09:01:49;;;;;;;0.10;0.10;;;;;;;;;;5044545;27;93427;-70
2022/05/16 09:04:19;;;;;;;0.30;0.30;;;;;;;;;;5046320;27;92660;-74
2022/05/16 09:06:55;;;;;;;0.10;0.10;;;;;;;;;;5043393;27;93982;-73
2022/05/16 09:09:25;;;;;;;0.10;0.10;;;;;;;;;;5045307;27;92327;-74
2022/05/16 09:12:12;;;;;;;0.10;0.10;;;;;;;;;;5041897;27;95430;-73
2022/05/16 09:14:49;;;;;;;0.20;0.20;;;;;;;;;;5045688;27;93925;-73
2022/05/16 09:17:26;;;;;;;0.22;0.22;;;;;;;;;;5046154;27;92570;-72
2022/05/16 09:20:01;;;;;;;0.10;0.10;;;;;;;;;;5045263;27;93571;-73
2022/05/16 09:22:31;;;;;;;0.10;0.10;;;;;;;;;;5047435;27;93553;-71
2022/05/16 09:25:04;;;;;;;0.20;0.20;;;;;;;;;;5045928;27;92296;-72
2022/05/16 09:30:20;;;;;;;0.35;0.35;;;;;;;;;;5045587;27;91679;-74
2022/05/16 09:33:09;;;;;;;0.20;0.20;;;;;;;;;;5046880;27;93498;-75
2022/05/16 09:35:54;;;;;;;0.10;0.10;;;;;;;;;;5042093;27;93042;-74
2022/05/16 09:38:22;;;;;;;0.10;0.10;;;;;;;;;;5042020;27;95017;-75
2022/05/16 09:41:01;;;;;;;0.10;0.10;;;;;;;;;;5044323;27;96944;-74
2022/05/16 09:43:31;;;;;;;0.10;0.10;;;;;;;;;;5040972;27;94640;-75
2022/05/16 09:46:04;;;;;;;0.10;0.10;;;;;;;;;;5038341;28;92345;-74
2022/05/16 09:48:30;;;;;;;0.25;0.25;;;;;;;;;;5041597;28;94483;-76
2022/05/16 09:50:58;;;;;;;0.25;0.25;;;;;;;;;;5038559;28;92397;-74
2022/05/16 09:53:32;;;;;;;0.20;0.20;;;;;;;;;;5038775;28;92775;-78
2022/05/16 09:56:03;;;;;;;0.10;0.10;;;;;;;;;;5038709;28;93308;-76
2022/05/16 09:58:48;;;;;;;0.20;0.20;;;;;;;;;;5037770;28;92349;-74
2022/05/16 10:01:29;;;;;;;0.47;0.20;;;;;;;;;;5037665;27;93547;-72
2022/05/16 10:03:56;;;;;;;0.13;0.13;;;;;;;;;;5033290;27;95833;-75
2022/05/16 10:06:28;;;;;;;0.10;0.10;;;;;;;;;;5038108;27;92519;-77
2022/05/16 10:08:54;;;;;;;0.10;0.10;;;;;;;;;;5038120;27;93230;-75
2022/05/16 10:11:24;;;;;;;0.17;0.17;;;;;;;;;;5040824;27;93103;-77
2022/05/16 10:13:50;;;;;;;0.20;0.20;;;;;;;;;;5037860;27;92745;-76
2022/05/16 10:16:17;;;;;;;0.20;0.20;;;;;;;;;;5036844;27;93069;-71
2022/05/16 10:19:10;;;;;;;0.10;0.10;;;;;;;;;;5037785;28;92272;-75
2022/05/16 10:21:40;;;;;;;0.10;0.10;;;;;;;;;;5034330;27;93644;-75
2022/05/16 10:24:09;;;;;;;0.10;0.10;;;;;;;;;;5037425;27;93076;-73
2022/05/16 10:26:38;;;;;;;0.10;0.10;;;;;;;;;;5037504;27;92322;-76
2022/05/16 10:29:07;;;;;;;0.10;0.10;;;;;;;;;;5036361;27;94878;-75
2022/05/16 10:34:43;;;;;;;0.10;0.10;;;;;;;;;;5040887;27;92311;-79
2022/05/16 10:37:10;;;;;;;0.20;0.20;;;;;;;;;;5037367;27;93135;-76
2022/05/16 10:39:40;;;;;;;0.20;0.20;;;;;;;;;;5037461;27;92279;-76
2022/05/16 10:42:17;;;;;;;0.20;0.20;;;;;;;;;;5039357;27;93146;-75
2022/05/16 10:45:00;;;;;;;0.10;0.10;;;;;;;;;;5037400;27;93705;-75
2022/05/16 10:47:45;;;;;;;0.32;0.30;;;;;;;;;;5037811;27;91682;-76
2022/05/16 10:50:16;;;;;;;0.20;0.20;;;;;;;;;;5037367;27;92693;-76
2022/05/16 10:52:49;;;;;;;0.20;0.20;;;;;;;;;;5039204;27;93518;-75
2022/05/16 10:55:15;;;;;;;0.75;0.75;;;;;;;;;;5035160;27;94812;-76
2022/05/16 10:57:45;;;;;;;0.10;0.10;;;;;;;;;;5022333;27;95238;-76
2022/05/16 11:00:19;;;;;;;0.10;0.10;;;;;;;;;;5036994;27;92318;-77
2022/05/16 11:02:53;;;;;;;0.10;0.10;;;;;;;;;;5036578;27;93261;-76
2022/05/16 11:05:29;;;;;;;0.20;0.20;;;;;;;;;;5036687;27;93291;-70
2022/05/16 11:08:01;;;;;;;0.40;0.40;;;;;;;;;;5018889;27;92293;-74
2022/05/16 11:10:31;;;;;;;0.10;0.10;;;;;;;;;;5036767;27;93352;-73
2022/05/16 11:13:16;;;;;;;0.20;0.20;;;;;;;;;;5040360;27;93072;-73
2022/05/16 11:15:46;;;;;;;0.10;0.10;;;;;;;;;;5036757;27;92340;-74
2022/05/16 11:18:21;;;;;;;0.40;0.40;;;;;;;;;;5036785;27;92315;-73
2022/05/16 11:20:55;;;;;;;0.10;0.10;;;;;;;;;;5037823;27;96541;-73
2022/05/16 11:23:35;;;;;;;0.10;0.10;;;;;;;;;;5040143;27;96929;-73
2022/05/16 11:26:07;;;;;;;0.10;0.10;;;;;;;;;;5018464;27;93105;-74
2022/05/16 11:29:17;;;;;;;0.10;0.10;;;;;;;;;;5035221;27;92236;-73
2022/05/16 11:31:35;;;;;;;0.10;0.10;;;;;;;;;;5036063;27;93360;-73
2022/05/16 11:34:01;;;;;;;0.10;0.10;;;;;;;;;;5018454;27;95627;-74
2022/05/16 11:36:46;;;;;;;0.20;0.20;;;;;;;;;;5036110;27;92537;-74
2022/05/16 11:39:44;;;;;;;0.10;0.10;;;;;;;;;;5036612;27;93408;-73
2022/05/16 11:42:16;;;;;;;0.10;0.10;;;;;;;;;;5016220;28;94037;-73
2022/05/16 11:44:45;;;;;;;0.30;0.30;;;;;;;;;;5040236;28;92744;-73
2022/05/16 11:47:16;;;;;;;0.22;0.22;;;;;;;;;;5034643;28;96591;-72
2022/05/16 11:50:13;;;;;;;0.10;0.10;;;;;;;;;;5036887;28;93508;-71
2022/05/16 11:52:59;;;;;;;0.20;0.20;;;;;;;;;;5036547;28;94010;-71
2022/05/16 12:00:59;;;;;;;0.03;0.03;;;;;;;;;;5034842;27;93331;-70
2022/05/16 12:03:36;;;;;;;0.00;0.00;;;;;;;;;;5036731;28;93917;-70
2022/05/16 12:06:25;;;;;;;0.00;0.00;;;;;;;;;;5040092;28;91589;-71
2022/05/16 12:09:15;;;;;;;0.30;0.30;;;;;;;;;;5036551;28;92915;-69
2022/05/16 12:12:01;;;;;;;0.00;0.00;;;;;;;;;;5036779;28;92414;-71
2022/05/16 12:14:29;;;;;;;0.10;0.10;;;;;;;;;;5034803;28;94648;-72
2022/05/16 12:16:58;;;;;;;0.20;0.20;;;;;;;;;;5036533;28;93006;-72
2022/05/16 12:19:33;;;;;;;0.10;0.10;;;;;;;;;;5036527;28;92449;-71
2022/05/16 12:22:08;;;;;;;0.10;0.10;;;;;;;;;;5036727;28;93329;-71
2022/05/16 12:24:53;;;;;;;2.40;0.80;;;;;;;;;;5036100;28;92928;-71
2022/05/16 12:27:35;;;;;;;0.10;0.10;;;;;;;;;;5036456;28;92370;-72
2022/05/16 12:30:06;;;;;;;0.10;0.10;;;;;;;;;;5039530;28;93204;-72
2022/05/16 12:32:33;;;;;;;0.10;0.10;;;;;;;;;;5037173;28;91573;-73
2022/05/16 12:35:01;;;;;;;0.30;0.30;;;;;;;;;;5035867;28;92707;-72
2022/05/16 12:37:31;;;;;;;0.13;0.13;;;;;;;;;;5036070;28;93615;-72
2022/05/16 12:40:10;;;;;;;0.30;0.30;;;;;;;;;;5035907;27;94704;-74
2022/05/16 12:42:55;;;;;;;0.10;0.10;;;;;;;;;;5039338;28;96618;-72
2022/05/16 12:45:31;;;;;;;0.50;0.50;;;;;;;;;;5037400;27;93443;-73
2022/05/16 12:48:08;;;;;;;0.20;0.20;;;;;;;;;;5039301;27;92461;-73
2022/05/16 12:50:38;;;;;;;0.22;0.22;;;;;;;;;;5039914;27;93318;-73
2022/05/16 12:53:12;;;;;;;5.38;0.45;;;;;;;;;;5042212;27;93722;-72
2022/05/16 12:55:38;;;;;;;0.10;0.10;;;;;;;;;;5038875;27;93617;-72
2022/05/16 12:58:07;;;;;;;0.20;0.20;;;;;;;;;;5038341;27;92463;-74
2022/05/16 13:00:38;;;;;;;2.30;0.20;;;;;;;;;;5039786;27;93205;-72
2022/05/16 13:03:14;;;;;;;0.10;0.10;;;;;;;;;;5039071;27;92521;-72
2022/05/16 13:05:45;;;;;;;0.20;0.20;;;;;;;;;;5018934;27;96979;-72
2022/05/16 13:08:43;;;;;;;0.10;0.10;;;;;;;;;;5020500;27;93408;-73
2022/05/16 13:11:30;;;;;;;0.15;0.15;;;;;;;;;;5038674;27;92373;-73
2022/05/16 13:14:23;;;;;;;0.10;0.10;;;;;;;;;;5020632;27;95202;-72
2022/05/16 13:16:49;;;;;;;0.20;0.20;;;;;;;;;;5016367;27;92469;-72
2022/05/16 13:19:17;;;;;;;0.20;0.20;;;;;;;;;;5040662;27;92865;-73
2022/05/16 13:21:54;;;;;;;0.10;0.10;;;;;;;;;;5038328;27;92437;-73
2022/05/16 13:24:22;;;;;;;0.20;0.20;;;;;;;;;;5038934;27;93299;-73
2022/05/16 13:29:56;;;;;;;0.30;0.30;;;;;;;;;;5040962;27;93389;-73
2022/05/16 13:32:29;;;;;;;0.10;0.10;;;;;;;;;;5036989;27;94862;-73
2022/05/16 13:34:56;;;;;;;0.20;0.20;;;;;;;;;;5038322;27;93885;-73
2022/05/16 13:37:25;;;;;;;0.10;0.10;;;;;;;;;;5038259;27;92463;-73
2022/05/16 13:39:56;;;;;;;0.30;0.30;;;;;;;;;;5026214;27;93350;-72
2022/05/16 13:42:22;;;;;;;0.10;0.10;;;;;;;;;;5038464;27;92215;-73
2022/05/16 13:44:49;;;;;;;0.25;0.25;;;;;;;;;;5038167;27;93325;-75
2022/05/16 13:47:19;;;;;;;1.00;1.00;;;;;;;;;;5020075;28;94266;-73
2022/05/16 13:49:45;;;;;;;0.10;0.10;;;;;;;;;;5028313;27;92891;-73
2022/05/16 13:52:19;;;;;;;0.77;0.70;;;;;;;;;;5036727;27;94140;-74
2022/05/16 13:54:46;;;;;;;0.10;0.10;;;;;;;;;;5037705;27;94089;-74
2022/05/16 13:57:16;;;;;;;0.65;0.65;;;;;;;;;;5018478;28;94831;-73
2022/05/16 13:59:42;;;;;;;0.10;0.10;;;;;;;;;;5045012;27;95847;-74
2022/05/16 14:02:15;;;;;;;0.20;0.20;;;;;;;;;;5038115;27;92151;-74
2022/05/16 14:04:47;;;;;;;0.30;0.30;;;;;;;;;;5023932;28;93644;-74
2022/05/16 14:07:25;;;;;;;0.35;0.35;;;;;;;;;;5038039;27;94065;-74
2022/05/16 14:09:54;;;;;;;0.10;0.10;;;;;;;;;;5037888;27;92424;-73
2022/05/16 14:12:28;;;;;;;0.20;0.20;;;;;;;;;;5037937;27;93367;-74
2022/05/16 14:14:55;;;;;;;0.63;0.63;;;;;;;;;;5037900;27;93224;-73
2022/05/16 14:17:41;;;;;;;0.10;0.10;;;;;;;;;;5019405;27;92477;-74
2022/05/16 14:20:19;;;;;;;1.48;1.20;;;;;;;;;;5038541;27;93939;-74
2022/05/16 14:22:50;;;;;;;0.40;0.40;;;;;;;;;;5039268;27;96222;-74
2022/05/16 14:25:31;;;;;;;0.10;0.10;;;;;;;;;;5037593;27;95751;-72
2022/05/16 14:27:58;;;;;;;0.10;0.10;;;;;;;;;;5037059;27;94156;-71
2022/05/16 14:30:26;;;;;;;0.10;0.10;;;;;;;;;;5038796;27;92202;-72
2022/05/16 14:33:04;;;;;;;0.10;0.10;;;;;;;;;;5037719;27;92440;-73
2022/05/16 14:35:33;;;;;;;0.30;0.30;;;;;;;;;;5019330;27;94603;-71
2022/05/16 14:38:10;;;;;;;0.20;0.20;;;;;;;;;;5037414;27;92654;-73
2022/05/16 14:40:38;;;;;;;0.08;0.08;;;;;;;;;;5039533;27;93264;-72
2022/05/16 14:43:24;;;;;;;0.20;0.20;;;;;;;;;;5037163;27;93843;-73
2022/05/16 14:48:38;;;;;;;0.30;0.30;;;;;;;;;;5034712;27;96042;-72
2022/05/16 14:51:06;;;;;;;0.05;0.05;;;;;;;;;;5039253;27;92412;-73
2022/05/16 14:53:33;;;;;;;0.00;0.00;;;;;;;;;;5037284;27;93707;-73
2022/05/16 14:55:59;;;;;;;0.10;0.10;;;;;;;;;;5037201;27;92702;-76
2022/05/16 14:58:27;;;;;;;0.10;0.10;;;;;;;;;;5035766;27;92469;-75
2022/05/16 15:06:24;;;;;;;0.20;0.20;;;;;;;;;;5037372;27;92344;-75
2022/05/16 15:08:52;;;;;;;0.00;0.00;;;;;;;;;;5040116;27;92716;-77
2022/05/16 15:11:21;;;;;;;0.10;0.10;;;;;;;;;;5038539;27;92304;-76
2022/05/16 15:13:47;;;;;;;0.00;0.00;;;;;;;;;;5035204;27;94739;-73
2022/05/16 15:16:14;;;;;;;0.10;0.10;;;;;;;;;;5036487;27;93481;-76
2022/05/16 15:18:40;;;;;;;0.00;0.00;;;;;;;;;;5036668;27;92302;-75
2022/05/16 15:21:07;;;;;;;0.22;0.20;;;;;;;;;;5036249;27;92448;-75
2022/05/16 15:23:33;;;;;;;0.00;0.00;;;;;;;;;;5036257;27;94097;-75
2022/05/16 15:26:00;;;;;;;0.10;0.10;;;;;;;;;;5018417;27;92537;-76
2022/05/16 15:28:26;;;;;;;0.32;0.32;;;;;;;;;;5036548;27;93527;-74
2022/05/16 15:30:59;;;;;;;0.00;0.00;;;;;;;;;;5039795;27;93060;-76
2022/05/16 15:33:25;;;;;;;0.20;0.20;;;;;;;;;;5036161;27;93962;-76
2022/05/16 15:35:51;;;;;;;0.10;0.10;;;;;;;;;;5036469;27;93607;-77
2022/05/16 15:38:19;;;;;;;2.90;1.52;;;;;;;;;;5034837;27;94677;-76
2022/05/16 15:40:46;;;;;;;0.10;0.10;;;;;;;;;;5036569;27;95866;-77
2022/05/16 15:43:14;;;;;;;0.28;0.28;;;;;;;;;;5037654;27;94674;-75
2022/05/16 15:45:42;;;;;;;0.20;0.20;;;;;;;;;;5036550;27;92407;-78
2022/05/16 15:48:10;;;;;;;0.13;0.13;;;;;;;;;;5036345;27;92487;-77
2022/05/16 15:51:12;;;;;;;0.00;0.00;;;;;;;;;;5036425;27;93172;-80